Time;durP1;ratioP1;P1;durP2;ratioP2;P2;SDS_P1;SDS_P2;PMS_P1;PMS_P2;Temp;Humidity;BMP_temperature;BMP_pressure;BME280_temperature;BME280_humidity;BME280_pressure;Samples;Min_cycle;Max_cycle;Signal;HPM_P1;HPM_P2
2022/08/08 00:02:14;;;;;;;9.00;6.20;;;16.90;1.00;;;;;;5117113;28;20167;-74
2022/08/08 00:04:55;;;;;;;6.77;5.87;;;16.80;1.00;;;;;;5117267;28;20209;-73
2022/08/08 00:07:41;;;;;;;5.93;5.37;;;16.80;1.00;;;;;;5098946;28;20174;-73
2022/08/08 00:10:19;;;;;;;5.97;5.37;;;16.70;1.00;;;;;;5117373;28;20159;-73
2022/08/08 00:13:05;;;;;;;11.77;6.00;;;16.70;1.00;;;;;;5117117;28;20234;-73
2022/08/08 00:15:35;;;;;;;6.67;5.57;;;16.70;1.00;;;;;;5116834;28;20634;-73
2022/08/08 00:18:35;;;;;;;6.97;5.90;;;16.70;1.00;;;;;;5117240;28;20254;-74
2022/08/08 00:21:02;;;;;;;8.67;5.77;;;16.70;1.00;;;;;;5117321;28;20175;-73
2022/08/08 00:23:46;;;;;;;7.00;6.30;;;16.60;1.00;;;;;;5116933;28;20579;-74
2022/08/08 00:26:30;;;;;;;7.70;6.03;;;16.60;1.00;;;;;;5117029;28;20571;-74
2022/08/08 00:29:09;;;;;;;7.23;6.27;;;16.50;1.00;;;;;;5117155;28;20171;-73
2022/08/08 00:31:40;;;;;;;10.07;6.47;;;16.50;1.00;;;;;;5116753;28;20199;-73
2022/08/08 00:38:02;;;;;;;9.07;6.70;;;16.40;1.00;;;;;;5117091;28;20183;-73
2022/08/08 00:40:28;;;;;;;7.53;6.70;;;16.40;1.00;;;;;;5034112;28;20582;-74
2022/08/08 00:43:26;;;;;;;12.77;6.67;;;16.30;2.30;;;;;;5033734;28;20673;-74
2022/08/08 00:46:06;;;;;;;7.67;6.53;;;16.40;2.40;;;;;;5033643;28;20208;-73
2022/08/08 00:49:03;;;;;;;7.80;6.60;;;16.40;1.80;;;;;;5034029;28;20174;-73
2022/08/08 00:51:32;;;;;;;7.60;6.37;;;16.30;2.60;;;;;;5033968;28;20204;-73
2022/08/08 00:54:31;;;;;;;8.17;7.03;;;16.40;3.40;;;;;;5017226;28;20178;-73
2022/08/08 00:57:24;;;;;;;9.60;7.30;;;16.40;4.90;;;;;;5033558;28;20228;-73
2022/08/08 01:00:11;;;;;;;7.70;6.97;;;16.30;6.40;;;;;;5033515;28;20243;-74
2022/08/08 01:03:10;;;;;;;10.03;7.17;;;16.30;9.90;;;;;;5032559;28;20644;-73
2022/08/08 01:05:47;;;;;;;11.73;7.13;;;16.30;13.70;;;;;;5033775;28;20185;-73
2022/08/08 01:08:32;;;;;;;7.77;7.00;;;16.20;15.10;;;;;;5016969;28;20239;-73
2022/08/08 01:11:33;;;;;;;12.77;7.67;;;16.30;15.30;;;;;;5017047;28;20177;-73
2022/08/08 01:14:14;;;;;;;7.70;6.90;;;16.30;17.40;;;;;;5016507;28;20196;-73
2022/08/08 01:16:55;;;;;;;10.60;7.53;;;16.20;18.40;;;;;;5094566;28;20187;-73
2022/08/08 01:19:33;;;;;;;11.50;7.73;;;16.20;21.10;;;;;;5097830;28;20171;-73
2022/08/08 01:22:02;;;;;;;11.33;7.60;;;16.20;22.00;;;;;;5097574;28;20159;-73
2022/08/08 01:24:49;;;;;;;11.77;7.67;;;16.20;21.70;;;;;;5115947;28;20202;-73
2022/08/08 01:27:30;;;;;;;9.23;7.20;;;16.20;21.20;;;;;;5097515;28;20176;-73
2022/08/08 01:30:43;;;;;;;9.83;7.80;;;16.20;22.90;;;;;;5115456;28;20522;-73
2022/08/08 01:33:29;;;;;;;10.57;8.17;;;16.20;26.40;;;;;;5033055;28;20216;-73
2022/08/08 01:36:12;;;;;;;9.80;8.03;;;16.10;29.30;;;;;;5033057;28;20189;-73
2022/08/08 01:38:56;;;;;;;9.00;7.97;;;16.10;31.60;;;;;;5032887;28;20174;-73
2022/08/08 01:41:35;;;;;;;9.73;8.17;;;16.10;37.20;;;;;;5032981;28;20181;-73
2022/08/08 01:44:06;;;;;;;10.70;8.23;;;15.90;42.60;;;;;;5032510;28;20209;-73
2022/08/08 01:47:02;;;;;;;11.97;8.40;;;16.00;44.70;;;;;;5032876;28;20174;-73
2022/08/08 01:49:43;;;;;;;11.77;8.37;;;15.90;43.70;;;;;;5016120;28;20178;-73
2022/08/08 01:52:36;;;;;;;11.33;8.50;;;15.90;48.40;;;;;;5032660;28;20180;-73
2022/08/08 01:55:05;;;;;;;10.33;9.30;;;15.90;47.10;;;;;;5015991;28;20640;-72
2022/08/08 01:57:43;;;;;;;11.13;9.43;;;15.90;50.60;;;;;;5032250;28;20197;-72
2022/08/08 02:00:25;;;;;;;13.63;9.07;;;15.80;56.80;;;;;;5015716;28;20180;-73
2022/08/08 02:02:53;;;;;;;10.80;9.40;;;15.80;57.30;;;;;;5032608;28;20296;-73
2022/08/08 02:05:44;;;;;;;11.10;9.77;;;15.80;62.80;;;;;;5032457;28;20206;-73
2022/08/08 02:08:47;;;;;;;11.10;10.00;;;15.70;65.40;;;;;;5036817;28;20170;-73
2022/08/08 02:11:28;;;;;;;13.53;11.17;;;15.70;65.50;;;;;;5114701;28;20262;-73
2022/08/08 02:14:29;;;;;;;11.50;10.10;;;15.70;71.00;;;;;;5114349;28;20227;-73
2022/08/08 02:17:02;;;;;;;14.00;9.77;;;15.60;76.20;;;;;;5114938;28;20245;-73
2022/08/08 02:19:42;;;;;;;15.83;11.37;;;15.70;81.00;;;;;;5096643;28;20171;-73
2022/08/08 02:22:37;;;;;;;12.90;11.23;;;15.70;80.60;;;;;;5114648;28;20167;-73
2022/08/08 02:25:09;;;;;;;13.83;12.20;;;15.70;82.90;;;;;;5114729;28;20199;-73
2022/08/08 02:27:46;;;;;;;14.90;11.83;;;15.70;85.70;;;;;;5114368;28;20179;-74
2022/08/08 02:30:45;;;;;;;13.30;11.87;;;15.60;89.30;;;;;;5114579;28;20163;-74
2022/08/08 02:33:48;;;;;;;13.57;11.73;;;15.60;92.20;;;;;;5113706;28;20186;-73
2022/08/08 02:36:38;;;;;;;16.47;13.10;;;15.50;94.70;;;;;;5096326;28;20178;-73
2022/08/08 02:39:04;;;;;;;15.07;12.17;;;15.50;96.70;;;;;;5114332;28;20651;-73
2022/08/08 02:41:47;;;;;;;15.40;12.17;;;15.50;96.30;;;;;;5113807;28;20168;-73
2022/08/08 02:44:47;;;;;;;16.23;13.13;;;15.50;97.70;;;;;;5114288;28;20295;-74
2022/08/08 02:47:45;;;;;;;16.47;13.80;;;15.50;97.20;;;;;;5114180;28;20202;-74
2022/08/08 02:50:41;;;;;;;17.73;13.57;;;15.50;97.90;;;;;;5031574;28;20196;-74
2022/08/08 02:53:37;;;;;;;17.97;13.23;;;15.40;99.40;;;;;;5031568;28;20300;-73
2022/08/08 02:56:32;;;;;;;18.10;12.33;;;15.50;99.60;;;;;;5031138;28;20170;-74
2022/08/08 02:59:27;;;;;;;17.57;13.13;;;15.40;99.40;;;;;;5022721;28;20182;-74
2022/08/08 03:02:14;;;;;;;16.43;13.00;;;15.30;99.90;;;;;;5031299;28;20227;-74
2022/08/08 03:04:42;;;;;;;15.63;13.00;;;15.50;99.90;;;;;;5031416;28;20213;-74
2022/08/08 03:07:23;;;;;;;18.33;12.77;;;15.40;99.30;;;;;;5031489;28;20289;-74
2022/08/08 03:09:57;;;;;;;16.70;12.83;;;15.50;99.90;;;;;;5030994;28;20177;-74
2022/08/08 03:12:35;;;;;;;14.97;13.33;;;15.40;99.50;;;;;;5007473;28;20256;-74
2022/08/08 03:15:05;;;;;;;15.43;12.73;;;15.40;99.90;;;;;;4994974;28;20244;-74
2022/08/08 03:17:36;;;;;;;20.23;14.40;;;15.40;99.90;;;;;;5011273;28;20643;-74
2022/08/08 03:22:27;;;;;;;19.33;14.50;;;15.40;99.90;;;;;;5011330;28;20170;-74
2022/08/08 03:24:55;;;;;;;17.37;14.33;;;15.30;99.90;;;;;;5018458;28;20249;-74
2022/08/08 03:27:26;;;;;;;19.00;14.43;;;15.30;99.90;;;;;;5072784;28;20628;-74
2022/08/08 03:30:00;;;;;;;19.20;14.53;;;15.20;99.90;;;;;;5072922;28;20172;-74
2022/08/08 03:35:10;;;;;;;19.60;15.47;;;15.20;99.90;;;;;;5072949;28;20218;-74
2022/08/08 03:37:36;;;;;;;20.47;15.50;;;15.10;99.90;;;;;;5072846;28;20180;-74
2022/08/08 03:40:04;;;;;;;20.97;16.50;;;15.10;99.90;;;;;;5072695;28;20184;-73
2022/08/08 03:42:30;;;;;;;25.33;15.57;;;15.00;99.90;;;;;;5072715;28;20164;-73
2022/08/08 03:44:56;;;;;;;21.83;16.40;;;15.10;99.90;;;;;;5072556;28;20211;-74
2022/08/08 03:47:22;;;;;;;18.57;15.40;;;15.10;99.90;;;;;;5072547;28;20165;-74
2022/08/08 03:49:49;;;;;;;22.20;16.43;;;15.00;99.90;;;;;;5072844;28;20631;-73
2022/08/08 03:52:15;;;;;;;21.70;15.93;;;15.10;99.90;;;;;;5072313;28;20165;-74
2022/08/08 03:54:44;;;;;;;21.73;16.77;;;15.00;99.90;;;;;;5072186;28;20180;-73
2022/08/08 03:57:15;;;;;;;21.47;16.00;;;15.00;99.90;;;;;;5072208;28;20651;-73
2022/08/08 03:59:40;;;;;;;18.77;15.90;;;15.00;99.90;;;;;;5072822;28;20164;-73
2022/08/08 04:02:18;;;;;;;21.50;15.53;;;15.00;99.90;;;;;;5071069;28;20256;-74
2022/08/08 04:04:45;;;;;;;21.80;17.73;;;15.00;99.90;;;;;;5072170;28;20232;-74
2022/08/08 04:07:11;;;;;;;22.17;17.53;;;15.10;99.90;;;;;;5072459;28;20181;-74
2022/08/08 04:09:37;;;;;;;24.47;17.87;;;15.10;99.90;;;;;;5071932;28;20241;-73
2022/08/08 04:12:03;;;;;;;24.90;17.57;;;15.10;99.90;;;;;;5079827;28;20218;-74
2022/08/08 04:14:29;;;;;;;24.10;18.40;;;15.10;99.90;;;;;;5113220;28;20258;-73
2022/08/08 04:16:55;;;;;;;25.53;19.20;;;15.10;99.90;;;;;;5112762;28;20662;-74
2022/08/08 04:19:20;;;;;;;24.57;19.57;;;15.10;99.90;;;;;;5112847;28;20520;-74
2022/08/08 04:21:46;;;;;;;23.87;19.10;;;15.00;99.90;;;;;;5112553;28;20176;-73
2022/08/08 04:24:12;;;;;;;25.90;19.33;;;14.90;99.90;;;;;;5113143;28;20210;-73
2022/08/08 04:26:37;;;;;;;25.67;19.17;;;14.80;99.90;;;;;;5112779;28;20167;-73
2022/08/08 04:29:03;;;;;;;23.67;18.70;;;14.80;99.90;;;;;;5113088;28;20171;-73
2022/08/08 04:31:29;;;;;;;27.80;20.67;;;14.90;99.90;;;;;;5112191;28;20329;-73
2022/08/08 04:33:55;;;;;;;24.73;19.63;;;14.90;99.90;;;;;;5112849;28;20172;-73
2022/08/08 04:36:20;;;;;;;27.77;19.47;;;14.90;99.90;;;;;;5112936;28;20183;-73
2022/08/08 04:38:46;;;;;;;22.50;19.07;;;15.10;99.90;;;;;;5097682;28;20171;-74
2022/08/08 04:41:12;;;;;;;24.50;18.63;;;15.30;99.90;;;;;;5116375;28;20751;-74
2022/08/08 04:43:37;;;;;;;20.80;17.37;;;15.70;99.90;;;;;;5098273;28;20209;-74
2022/08/08 04:46:04;;;;;;;29.23;18.57;;;16.00;99.90;;;;;;5116435;28;20171;-74
2022/08/08 04:48:30;;;;;;;23.00;18.13;;;16.30;99.90;;;;;;5097862;28;20175;-74
2022/08/08 04:50:55;;;;;;;24.03;16.00;;;16.70;93.90;;;;;;5115666;28;20177;-74
2022/08/08 04:53:21;;;;;;;23.33;16.87;;;17.00;68.10;;;;;;5115495;28;20210;-74
2022/08/08 04:55:47;;;;;;;21.30;17.07;;;17.40;51.10;;;;;;5115872;28;20650;-74
2022/08/08 04:58:14;;;;;;;21.80;16.00;;;17.50;30.30;;;;;;5116029;28;20167;-74
2022/08/08 05:00:40;;;;;;;21.03;16.10;;;17.60;24.20;;;;;;5115991;28;20159;-74
2022/08/08 05:03:06;;;;;;;20.60;16.37;;;17.80;21.70;;;;;;5116099;28;20180;-74
2022/08/08 05:05:32;;;;;;;19.03;15.50;;;18.10;11.30;;;;;;5115806;28;20207;-75
2022/08/08 05:07:58;;;;;;;21.47;15.47;;;18.50;1.00;;;;;;5115188;28;20626;-74
2022/08/08 05:10:28;;;;;;;20.60;16.10;;;18.70;1.00;;;;;;5115611;28;20164;-74
2022/08/08 05:12:55;;;;;;;20.37;16.37;;;18.70;1.00;;;;;;5115286;28;20260;-73
2022/08/08 05:15:20;;;;;;;19.00;15.20;;;18.80;1.00;;;;;;5115788;28;20504;-73
2022/08/08 05:17:46;;;;;;;17.70;15.23;;;18.60;1.00;;;;;;5115343;28;20163;-74
2022/08/08 05:20:11;;;;;;;17.97;14.90;;;18.50;1.00;;;;;;5115287;28;20182;-74
2022/08/08 05:22:37;;;;;;;21.30;14.45;;;18.70;1.00;;;;;;5096714;28;20261;-75
2022/08/08 05:25:04;;;;;;;22.77;14.57;;;19.10;1.00;;;;;;5096887;28;20241;-75
2022/08/08 05:27:30;;;;;;;20.40;14.55;;;19.40;1.00;;;;;;5097322;28;20262;-75
2022/08/08 05:29:55;;;;;;;26.25;13.15;;;19.70;1.00;;;;;;5115272;27;20273;-75
2022/08/08 05:32:21;;;;;;;20.15;13.90;;;20.40;1.00;;;;;;5114904;28;20183;-75
2022/08/08 05:34:49;;;;;;;21.33;13.13;;;20.80;1.00;;;;;;5096575;28;20174;-75
2022/08/08 05:37:17;;;;;;;19.77;12.77;;;20.90;1.00;;;;;;5115376;28;20171;-76
2022/08/08 05:39:48;;;;;;;17.92;12.45;;;21.20;99.90;;;;;;5114805;28;20175;-75
2022/08/08 05:42:14;;;;;;;16.90;12.50;;;21.40;99.90;;;;;;5114804;28;20585;-76
2022/08/08 05:44:45;;;;;;;15.85;12.95;;;21.10;99.90;;;;;;5114744;28;20238;-77
2022/08/08 05:47:12;;;;;;;15.13;12.43;;;21.40;1.00;;;;;;5114973;28;20182;-78
2022/08/08 05:49:39;;;;;;;17.15;12.95;;;22.00;99.90;;;;;;5114345;28;20221;-77
2022/08/08 05:52:05;;;;;;;14.63;12.93;;;22.20;1.00;;;;;;5114793;28;20195;-76
2022/08/08 05:54:30;;;;;;;14.95;12.40;;;22.80;99.90;;;;;;5096084;28;20198;-77
2022/08/08 05:56:56;;;;;;;15.02;11.55;;;23.30;99.90;;;;;;5114613;28;20222;-77
2022/08/08 05:59:24;;;;;;;15.20;12.23;;;23.90;1.00;;;;;;5095762;28;20231;-77
2022/08/08 06:01:53;;;;;;;13.38;11.15;;;24.10;99.90;;;;;;5114390;28;20163;-78
2022/08/08 06:04:23;;;;;;;12.40;11.10;;;24.60;99.90;;;;;;5113917;28;20278;-79
2022/08/08 06:06:53;;;;;;;12.02;10.13;;;25.30;99.90;;;;;;5114243;28;20194;-80
2022/08/08 06:09:24;;;;;;;12.68;11.15;;;25.00;1.00;;;;;;5114346;28;20159;-79
2022/08/08 06:11:50;;;;;;;11.60;10.40;;;25.50;93.60;;;;;;5114153;28;20336;-81
2022/08/08 06:14:16;;;;;;;13.50;10.18;;;25.70;43.40;;;;;;5114237;28;20618;-80
2022/08/08 06:16:42;;;;;;;16.27;10.65;;;26.70;1.00;;;;;;5114232;28;20175;-80
2022/08/08 06:19:10;;;;;;;14.80;10.00;;;27.70;99.90;;;;;;5113896;28;20266;-79
2022/08/08 06:21:39;;;;;;;14.57;10.00;;;27.50;99.90;;;;;;5113951;28;20160;-79
2022/08/08 06:24:05;;;;;;;10.85;9.07;;;28.30;99.90;;;;;;5114065;28;20215;-79
2022/08/08 06:26:38;;;;;;;11.02;9.00;;;27.40;99.90;;;;;;5113853;28;20171;-77
2022/08/08 06:29:08;;;;;;;10.25;8.70;;;27.80;99.90;;;;;;5114029;28;20209;-79
2022/08/08 06:31:35;;;;;;;9.77;8.82;;;28.60;99.90;;;;;;5113868;28;20199;-75
2022/08/08 06:34:05;;;;;;;9.98;8.68;;;27.50;99.90;;;;;;5113592;28;20697;-76
2022/08/08 06:36:37;;;;;;;9.95;9.02;;;26.50;1.00;;;;;;5114021;28;20171;-76
2022/08/08 06:39:04;;;;;;;8.95;8.15;;;26.70;1.00;;;;;;5113494;28;20238;-77
2022/08/08 06:41:32;;;;;;;9.43;8.07;;;26.00;1.00;;;;;;5113684;28;20171;-79
2022/08/08 06:44:01;;;;;;;10.60;7.82;;;25.10;3.20;;;;;;5113713;28;20202;-76
2022/08/08 06:46:28;;;;;;;10.75;9.20;;;25.50;1.00;;;;;;5113537;28;20222;-76
2022/08/08 06:48:55;;;;;;;14.45;8.90;;;26.70;1.00;;;;;;5113179;28;20167;-75
2022/08/08 06:51:21;;;;;;;10.45;8.25;;;27.70;99.90;;;;;;5095310;28;20262;-77
2022/08/08 06:53:47;;;;;;;11.70;9.35;;;29.30;99.90;;;;;;5113387;28;20215;-76
2022/08/08 06:56:13;;;;;;;12.25;8.65;;;29.90;99.90;;;;;;5113446;28;20163;-77
2022/08/08 06:58:38;;;;;;;11.05;7.80;;;30.20;99.90;;;;;;5095231;28;20175;-76
2022/08/08 07:01:09;;;;;;;10.60;8.35;;;28.00;99.90;;;;;;5112550;28;20178;-76
2022/08/08 07:03:54;;;;;;;9.18;7.35;;;28.90;99.90;;;;;;5095226;28;20199;-78
2022/08/08 07:06:22;;;;;;;7.88;6.60;;;29.10;99.90;;;;;;5095041;28;20181;-76
2022/08/08 07:08:55;;;;;;;6.95;6.32;;;28.60;99.90;;;;;;5113756;28;20617;-77
2022/08/08 07:11:27;;;;;;;6.97;6.30;;;27.60;99.90;;;;;;5094691;28;20186;-77
2022/08/08 07:13:58;;;;;;;8.40;6.47;;;27.10;99.90;;;;;;5072353;28;20311;-76
2022/08/08 07:16:38;;;;;;;8.43;6.88;;;26.40;99.90;;;;;;5072216;28;20176;-75
2022/08/08 07:19:16;;;;;;;10.25;6.07;;;25.60;1.00;;;;;;5072899;28;20251;-76
2022/08/08 07:21:54;;;;;;;8.48;6.00;;;24.60;98.00;;;;;;5073307;28;20168;-77
2022/08/08 07:24:28;;;;;;;8.43;6.75;;;24.50;1.00;;;;;;5072452;28;20192;-76
2022/08/08 07:26:56;;;;;;;9.07;6.47;;;24.90;99.90;;;;;;5072691;28;20162;-76
2022/08/08 07:29:22;;;;;;;10.90;6.43;;;25.70;1.00;;;;;;5073024;28;20405;-76
2022/08/08 07:31:48;;;;;;;9.20;7.00;;;25.60;1.00;;;;;;5071943;28;20181;-76
2022/08/08 07:34:16;;;;;;;10.60;6.80;;;27.10;1.00;;;;;;5072855;28;20525;-75
2022/08/08 07:36:42;;;;;;;7.85;6.30;;;28.00;99.90;;;;;;5071369;28;20269;-77
2022/08/08 07:39:08;;;;;;;7.55;6.28;;;28.20;99.90;;;;;;5072743;28;20211;-78
2022/08/08 07:41:37;;;;;;;8.80;6.18;;;28.50;99.90;;;;;;5072610;28;20196;-75
2022/08/08 07:44:04;;;;;;;7.15;6.18;;;27.50;99.90;;;;;;5070968;28;20216;-75
2022/08/08 07:46:30;;;;;;;7.22;6.55;;;26.50;99.90;;;;;;5072022;28;20687;-75
2022/08/08 07:48:56;;;;;;;7.75;6.00;;;26.90;99.90;;;;;;5072364;28;20272;-75
2022/08/08 07:51:23;;;;;;;9.07;6.85;;;27.10;99.90;;;;;;5072386;28;20188;-75
2022/08/08 07:53:54;;;;;;;8.70;6.45;;;26.60;99.90;;;;;;5072052;28;20251;-75
2022/08/08 07:56:25;;;;;;;6.72;5.97;;;27.60;99.90;;;;;;5071231;28;20172;-76
2022/08/08 07:58:50;;;;;;;6.95;6.22;;;27.60;99.90;;;;;;5071806;28;20601;-76
2022/08/08 08:01:22;;;;;;;8.95;6.03;;;26.80;99.90;;;;;;5072148;28;20184;-75
2022/08/08 08:03:57;;;;;;;7.50;6.53;;;27.50;99.90;;;;;;5072075;28;20199;-77
2022/08/08 08:06:27;;;;;;;7.55;6.90;;;28.60;99.90;;;;;;5072118;28;20168;-76
2022/08/08 08:08:59;;;;;;;6.45;5.80;;;28.00;99.90;;;;;;5071837;28;20256;-76
2022/08/08 08:11:28;;;;;;;6.72;5.43;;;29.50;99.90;;;;;;5071116;28;20204;-77
2022/08/08 08:13:59;;;;;;;7.20;5.53;;;28.80;99.90;;;;;;5074420;28;20228;-77
2022/08/08 08:16:28;;;;;;;9.40;5.40;;;28.50;99.90;;;;;;5074846;28;20195;-74
2022/08/08 08:19:05;;;;;;;7.97;5.20;;;28.70;99.90;;;;;;5075313;28;20631;-75
2022/08/08 08:21:38;;;;;;;5.93;5.20;;;28.90;99.90;;;;;;5075802;28;20160;-75
2022/08/08 08:24:04;;;;;;;5.18;4.60;;;29.40;99.90;;;;;;5076198;28;20243;-74
2022/08/08 08:26:30;;;;;;;6.07;5.05;;;29.60;99.90;;;;;;5075775;28;20192;-75
2022/08/08 08:28:56;;;;;;;5.70;4.70;;;29.00;99.90;;;;;;5075777;28;20237;-77
2022/08/08 08:31:21;;;;;;;5.38;4.97;;;27.60;99.90;;;;;;5075489;28;20193;-76
2022/08/08 08:33:47;;;;;;;7.03;5.50;;;27.30;99.90;;;;;;5075494;28;20529;-77
2022/08/08 08:36:14;;;;;;;5.97;5.30;;;27.50;99.90;;;;;;5075797;28;20180;-76
2022/08/08 08:38:40;;;;;;;7.03;5.38;;;27.80;99.90;;;;;;5074045;28;20176;-76
2022/08/08 08:41:07;;;;;;;9.63;5.15;;;27.20;99.90;;;;;;5075146;28;20595;-76
2022/08/08 08:43:34;;;;;;;6.18;5.20;;;27.10;99.90;;;;;;5074088;28;20173;-77
2022/08/08 08:46:00;;;;;;;6.70;4.40;;;27.10;99.90;;;;;;5075571;28;20208;-73
2022/08/08 08:48:27;;;;;;;5.00;4.60;;;27.60;99.90;;;;;;5074935;28;20196;-74
2022/08/08 08:50:54;;;;;;;5.38;4.88;;;27.50;99.90;;;;;;5075149;28;20317;-76
2022/08/08 08:53:20;;;;;;;5.97;5.43;;;27.20;99.90;;;;;;5075077;28;20168;-76
2022/08/08 08:55:48;;;;;;;5.13;4.35;;;27.10;99.90;;;;;;5075546;28;20161;-74
2022/08/08 08:58:26;;;;;;;5.32;4.90;;;27.80;99.90;;;;;;5074422;28;20169;-74
2022/08/08 09:00:52;;;;;;;5.65;5.15;;;28.60;99.90;;;;;;5075099;28;20226;-74
2022/08/08 09:03:21;;;;;;;7.13;5.60;;;28.60;99.90;;;;;;5075489;28;20634;-72
2022/08/08 09:05:48;;;;;;;5.88;4.60;;;28.10;99.90;;;;;;5075067;28;20215;-74
2022/08/08 09:08:17;;;;;;;5.20;4.80;;;28.00;99.90;;;;;;5075475;28;20168;-74
2022/08/08 09:10:42;;;;;;;6.43;5.60;;;28.70;99.90;;;;;;5074449;28;20243;-74
2022/08/08 09:13:09;;;;;;;9.48;4.57;;;28.00;99.90;;;;;;5100283;28;20281;-74
2022/08/08 09:15:35;;;;;;;5.68;4.90;;;27.80;99.90;;;;;;5114932;28;20171;-73
2022/08/08 09:18:02;;;;;;;6.53;4.03;;;28.10;99.90;;;;;;5096660;28;20203;-73
2022/08/08 09:20:28;;;;;;;6.45;5.30;;;28.40;99.90;;;;;;5097321;28;20550;-74
2022/08/08 09:22:55;;;;;;;6.57;4.65;;;28.50;99.90;;;;;;5114915;28;20183;-74
2022/08/08 09:25:21;;;;;;;8.10;4.57;;;29.20;99.90;;;;;;5114784;28;20210;-73
2022/08/08 09:27:47;;;;;;;5.57;4.32;;;30.50;99.90;;;;;;5114954;28;20194;-74
2022/08/08 09:30:14;;;;;;;5.07;4.72;;;30.80;99.90;;;;;;5114717;28;20178;-74
2022/08/08 09:32:42;;;;;;;5.45;4.97;;;30.20;99.90;;;;;;5114914;28;20164;-73
2022/08/08 09:35:11;;;;;;;7.28;4.35;;;30.00;99.90;;;;;;5115122;28;20190;-74
2022/08/08 09:37:52;;;;;;;4.55;4.15;;;29.90;99.90;;;;;;5115109;28;20170;-74
2022/08/08 09:40:22;;;;;;;5.88;3.90;;;30.50;99.90;;;;;;5115507;28;20302;-74
2022/08/08 09:42:59;;;;;;;4.30;3.90;;;31.30;99.90;;;;;;5114925;28;20179;-74
2022/08/08 09:45:40;;;;;;;4.32;3.40;;;31.00;99.90;;;;;;5114738;28;20202;-75
2022/08/08 09:48:07;;;;;;;5.65;3.22;;;28.90;99.90;;;;;;5096449;28;20167;-77
2022/08/08 09:50:33;;;;;;;3.85;3.55;;;27.90;99.90;;;;;;5114805;28;20642;-77
2022/08/08 09:53:01;;;;;;;3.95;3.40;;;27.90;99.90;;;;;;5114872;28;20199;-75
2022/08/08 09:55:30;;;;;;;4.97;3.30;;;28.60;99.90;;;;;;5109187;28;20168;-72
2022/08/08 09:58:06;;;;;;;3.97;2.70;;;29.20;99.90;;;;;;5103176;28;20646;-75
2022/08/08 10:00:37;;;;;;;4.68;3.20;;;30.10;99.90;;;;;;5114040;28;20601;-75
2022/08/08 10:03:04;;;;;;;4.18;3.65;;;30.30;99.90;;;;;;5113931;28;20178;-76
2022/08/08 10:05:35;;;;;;;3.38;2.65;;;30.40;99.90;;;;;;5114213;28;20256;-74
2022/08/08 10:08:01;;;;;;;4.07;3.38;;;29.90;99.30;;;;;;5114309;28;20170;-75
2022/08/08 10:10:28;;;;;;;4.00;2.70;;;29.20;99.90;;;;;;5113554;28;20159;-75
2022/08/08 10:12:54;;;;;;;6.68;2.90;;;29.70;97.80;;;;;;5112904;28;20208;-75
2022/08/08 10:15:21;;;;;;;4.82;3.25;;;30.30;93.50;;;;;;5112527;28;20268;-76
2022/08/08 10:17:49;;;;;;;3.97;3.22;;;29.40;96.80;;;;;;5113610;28;20212;-75
2022/08/08 10:20:15;;;;;;;3.90;3.15;;;29.10;99.90;;;;;;5114090;28;20199;-77
2022/08/08 10:23:00;;;;;;;4.00;2.55;;;29.50;99.90;;;;;;5113460;28;20163;-74
2022/08/08 10:25:27;;;;;;;3.05;2.75;;;30.70;99.80;;;;;;5112657;28;20209;-75
2022/08/08 10:27:54;;;;;;;4.32;2.95;;;30.80;87.60;;;;;;5113817;28;20223;-74
2022/08/08 10:30:22;;;;;;;4.88;2.05;;;30.70;84.70;;;;;;5114136;28;20170;-74
2022/08/08 10:32:56;;;;;;;3.30;2.17;;;31.40;76.60;;;;;;5114472;28;20640;-75
2022/08/08 10:35:24;;;;;;;3.58;2.40;;;31.60;55.00;;;;;;5114067;28;20626;-76
2022/08/08 10:37:57;;;;;;;2.17;1.98;;;30.90;49.40;;;;;;5113561;28;20253;-76
2022/08/08 10:40:25;;;;;;;4.70;2.30;;;30.60;55.60;;;;;;5113468;28;20191;-74
2022/08/08 10:42:58;;;;;;;2.78;1.80;;;31.10;53.60;;;;;;5113760;28;20642;-75
2022/08/08 10:45:24;;;;;;;2.47;2.03;;;30.80;54.20;;;;;;5113354;28;20301;-74
2022/08/08 10:47:58;;;;;;;3.05;2.10;;;31.50;54.10;;;;;;5113397;28;20262;-74
2022/08/08 10:50:36;;;;;;;3.38;2.65;;;32.10;49.90;;;;;;5112824;28;20240;-76
2022/08/08 10:53:06;;;;;;;5.53;2.55;;;32.50;45.40;;;;;;5113110;28;20182;-74
2022/08/08 10:55:33;;;;;;;2.20;2.00;;;31.40;41.90;;;;;;5113048;28;20199;-73
2022/08/08 10:58:04;;;;;;;2.78;2.13;;;30.40;55.10;;;;;;5113667;28;20204;-78
2022/08/08 11:00:30;;;;;;;5.10;2.63;;;29.20;62.00;;;;;;5112610;28;20163;-74
2022/08/08 11:03:08;;;;;;;2.30;2.10;;;29.60;77.00;;;;;;5113663;28;20178;-74
2022/08/08 11:05:46;;;;;;;2.95;2.13;;;30.00;73.40;;;;;;5113242;27;20366;-74
2022/08/08 11:08:20;;;;;;;10.50;2.42;;;30.70;73.10;;;;;;5112867;28;20160;-75
2022/08/08 11:10:45;;;;;;;6.57;1.80;;;30.70;66.30;;;;;;5112781;28;20182;-75
2022/08/08 11:13:19;;;;;;;4.10;1.85;;;31.00;60.20;;;;;;5112616;28;20219;-74
2022/08/08 11:15:45;;;;;;;1.90;1.80;;;30.00;65.60;;;;;;5111138;28;20187;-76
2022/08/08 11:18:12;;;;;;;5.10;2.08;;;29.10;70.80;;;;;;5113190;28;20167;-74
2022/08/08 11:20:39;;;;;;;4.00;1.70;;;29.30;78.90;;;;;;5112832;28;20171;-77
2022/08/08 11:23:07;;;;;;;5.80;1.88;;;28.60;78.30;;;;;;5112644;28;20163;-76
2022/08/08 11:25:33;;;;;;;1.77;1.40;;;28.20;88.60;;;;;;5112549;28;20272;-76
2022/08/08 11:28:02;;;;;;;5.07;1.50;;;27.50;90.60;;;;;;5113233;28;20185;-74
2022/08/08 11:30:30;;;;;;;3.67;1.73;;;26.60;99.90;;;;;;5112750;28;20183;-74
2022/08/08 11:33:03;;;;;;;4.47;2.10;;;27.70;99.90;;;;;;5112843;28;20243;-74
2022/08/08 11:35:28;;;;;;;2.17;1.60;;;28.60;99.90;;;;;;5112994;28;20168;-75
2022/08/08 11:37:54;;;;;;;2.67;1.80;;;28.20;99.10;;;;;;5112340;28;20672;-73
2022/08/08 11:40:21;;;;;;;3.78;1.90;;;27.30;99.90;;;;;;5112884;28;20178;-74
2022/08/08 11:42:49;;;;;;;4.13;1.60;;;27.70;99.90;;;;;;5112926;28;20186;-73
2022/08/08 11:45:15;;;;;;;6.95;1.70;;;28.30;99.90;;;;;;5112734;28;20236;-73
2022/08/08 11:47:41;;;;;;;3.00;1.50;;;28.90;97.90;;;;;;5114778;28;20175;-73
2022/08/08 11:50:10;;;;;;;4.13;2.00;;;29.60;92.30;;;;;;5116370;28;20181;-72
2022/08/08 11:52:36;;;;;;;4.30;2.15;;;28.40;97.50;;;;;;5116846;28;20179;-75
2022/08/08 11:55:25;;;;;;;3.03;1.80;;;28.70;99.50;;;;;;5116274;28;20175;-72
2022/08/08 11:58:01;;;;;;;3.88;1.88;;;27.70;99.90;;;;;;5115612;28;20177;-72
2022/08/08 12:00:27;;;;;;;2.88;1.80;;;27.70;99.90;;;;;;5116783;28;20243;-72
2022/08/08 12:02:53;;;;;;;3.17;1.90;;;27.30;99.90;;;;;;5116155;28;20167;-80
2022/08/08 12:05:33;;;;;;;5.15;2.10;;;27.30;99.90;;;;;;5117139;28;20545;-74
2022/08/08 12:07:59;;;;;;;2.88;1.60;;;27.20;99.90;;;;;;5116446;28;20159;-73
2022/08/08 12:10:29;;;;;;;3.13;1.88;;;26.80;99.90;;;;;;5115587;28;20170;-73
2022/08/08 12:13:03;;;;;;;9.32;2.05;;;26.70;99.90;;;;;;5116264;28;20215;-73
2022/08/08 12:15:34;;;;;;;5.22;1.90;;;26.60;99.90;;;;;;5115204;28;20193;-73
2022/08/08 12:18:11;;;;;;;2.17;1.60;;;26.60;99.90;;;;;;5115998;28;20171;-75
2022/08/08 12:20:40;;;;;;;3.33;1.65;;;26.80;99.90;;;;;;5114982;28;20639;-76
2022/08/08 12:23:06;;;;;;;5.00;2.22;;;26.50;99.90;;;;;;5110122;28;20525;-76
2022/08/08 12:25:33;;;;;;;4.22;1.90;;;26.40;99.90;;;;;;5099512;28;20211;-75
2022/08/08 12:28:13;;;;;;;3.40;2.25;;;26.70;99.90;;;;;;5096099;28;20221;-77
2022/08/08 12:30:40;;;;;;;1.90;1.70;;;27.10;99.90;;;;;;5097214;28;20192;-74
2022/08/08 12:33:17;;;;;;;3.60;1.73;;;27.30;99.90;;;;;;5105428;28;20179;-76
2022/08/08 12:35:43;;;;;;;3.22;1.50;;;27.40;99.90;;;;;;5115985;28;20630;-77
2022/08/08 12:38:11;;;;;;;2.80;1.80;;;27.70;99.90;;;;;;5098186;28;20175;-75
2022/08/08 12:40:49;;;;;;;2.78;1.80;;;27.20;99.90;;;;;;5115400;28;20175;-78
2022/08/08 12:43:18;;;;;;;6.93;1.92;;;26.10;99.90;;;;;;5116332;28;20258;-77
2022/08/08 12:45:45;;;;;;;2.50;2.00;;;25.70;99.90;;;;;;5115830;28;20218;-75
2022/08/08 12:48:18;;;;;;;2.42;1.70;;;26.30;99.90;;;;;;5115789;28;20179;-74
2022/08/08 12:50:47;;;;;;;3.05;1.60;;;26.60;99.90;;;;;;5115477;28;20182;-78
2022/08/08 12:53:22;;;;;;;3.05;1.83;;;27.00;99.90;;;;;;5117677;28;20617;-79
2022/08/08 12:55:58;;;;;;;3.83;1.88;;;27.40;99.90;;;;;;5116163;28;20167;-78
2022/08/08 12:58:25;;;;;;;2.95;1.60;;;27.20;99.90;;;;;;5114575;28;20634;-75
2022/08/08 13:00:51;;;;;;;4.30;1.83;;;27.50;99.90;;;;;;5115478;28;20193;-76
2022/08/08 13:03:27;;;;;;;3.33;1.67;;;27.70;99.90;;;;;;5115944;28;20656;-76
2022/08/08 13:06:22;;;;;;;4.90;1.70;;;27.30;99.90;;;;;;5096314;28;20280;-74
2022/08/08 13:08:50;;;;;;;4.03;1.60;;;26.60;99.90;;;;;;5097686;28;20179;-73
2022/08/08 13:11:40;;;;;;;3.30;1.92;;;26.20;99.90;;;;;;5115074;28;20171;-73
2022/08/08 13:14:11;;;;;;;4.55;1.73;;;26.20;99.90;;;;;;5114980;28;20268;-74
2022/08/08 13:16:38;;;;;;;3.40;1.60;;;26.50;99.90;;;;;;5115130;28;20617;-73